Time;durP1;ratioP1;P1;durP2;ratioP2;P2;SDS_P1;SDS_P2;PMS_P1;PMS_P2;Temp;Humidity;BMP_temperature;BMP_pressure;BME280_temperature;BME280_humidity;BME280_pressure;Samples;Min_cycle;Max_cycle;Signal;HPM_P1;HPM_P2
2021/12/13 00:00:24;;;;;;;7.60;3.83;;;6.70;99.90;;;;;;5053648;28;20521;-67
2021/12/13 00:02:50;;;;;;;6.35;3.60;;;6.80;99.90;;;;;;5035052;28;20017;-67
2021/12/13 00:05:33;;;;;;;8.57;3.80;;;6.70;99.90;;;;;;5053266;28;20052;-67
2021/12/13 00:08:03;;;;;;;6.50;3.90;;;6.70;99.90;;;;;;5053507;28;20071;-67
2021/12/13 00:10:45;;;;;;;6.35;3.72;;;6.70;99.90;;;;;;5053618;28;20031;-67
2021/12/13 00:13:27;;;;;;;9.43;4.55;;;6.70;99.90;;;;;;5053029;28;20029;-67
2021/12/13 00:16:00;;;;;;;11.52;4.03;;;6.70;99.90;;;;;;5052925;28;20055;-67
2021/12/13 00:18:34;;;;;;;7.80;3.88;;;6.70;99.90;;;;;;5053207;28;20055;-67
2021/12/13 00:21:07;;;;;;;9.13;4.60;;;6.60;99.90;;;;;;5053121;28;20017;-67
2021/12/13 00:23:55;;;;;;;10.15;5.07;;;6.70;99.90;;;;;;5052847;28;20033;-67
2021/12/13 00:26:37;;;;;;;9.45;4.45;;;6.60;99.90;;;;;;5035010;28;20033;-67
2021/12/13 00:29:23;;;;;;;9.10;4.10;;;6.60;99.90;;;;;;5052989;28;20047;-67
2021/12/13 00:32:05;;;;;;;9.15;4.70;;;6.60;99.90;;;;;;5037644;28;20021;-66
2021/12/13 00:34:41;;;;;;;8.77;4.20;;;6.60;99.90;;;;;;5057292;28;20470;-67
2021/12/13 00:37:24;;;;;;;10.68;4.40;;;6.70;99.90;;;;;;5039362;28;20033;-66
2021/12/13 00:39:51;;;;;;;7.57;4.25;;;6.70;99.90;;;;;;5056755;28;20017;-66
2021/12/13 00:42:20;;;;;;;10.93;4.72;;;6.60;99.90;;;;;;5056523;28;20537;-66
2021/12/13 00:44:49;;;;;;;10.35;4.93;;;6.60;99.90;;;;;;5057149;28;20436;-66
2021/12/13 00:47:21;;;;;;;9.68;4.38;;;6.60;99.90;;;;;;5039457;28;20406;-66
2021/12/13 00:49:52;;;;;;;8.38;4.45;;;6.60;99.90;;;;;;5059272;28;20029;-66
2021/12/13 00:52:19;;;;;;;7.80;4.65;;;6.60;99.90;;;;;;5058450;28;20025;-67
2021/12/13 00:54:46;;;;;;;7.18;4.30;;;6.60;99.90;;;;;;5039492;28;20056;-66
2021/12/13 00:57:18;;;;;;;;;;;6.60;99.90;;;;;;5058190;28;20033;-67
2021/12/13 00:59:50;;;;;;;8.70;4.22;;;6.70;99.90;;;;;;5057214;28;19905;-66
2021/12/13 01:02:39;;;;;;;7.30;4.10;;;6.60;99.90;;;;;;5056883;28;20024;-65
2021/12/13 01:05:05;;;;;;;6.70;4.45;;;6.70;99.90;;;;;;5056420;28;20096;-66
2021/12/13 01:07:33;;;;;;;11.50;4.23;;;6.70;99.90;;;;;;5056483;28;20147;-66
2021/12/13 01:10:17;;;;;;;6.80;4.15;;;6.70;99.90;;;;;;5056487;28;20373;-65
2021/12/13 01:12:46;;;;;;;10.60;4.22;;;6.70;99.90;;;;;;5055994;28;20044;-66
2021/12/13 01:15:29;;;;;;;7.97;4.07;;;6.70;99.90;;;;;;5055997;28;20028;-66
2021/12/13 01:18:16;;;;;;;7.85;4.80;;;6.70;99.90;;;;;;5056410;28;20455;-66
2021/12/13 01:21:11;;;;;;;8.63;4.73;;;6.70;99.90;;;;;;5056955;28;20014;-66
2021/12/13 01:23:48;;;;;;;10.00;4.43;;;6.70;99.90;;;;;;5038025;28;20275;-66
2021/12/13 01:28:50;;;;;;;6.35;3.88;;;6.80;99.90;;;;;;5056498;28;20032;-66
2021/12/13 01:31:24;;;;;;;10.07;4.90;;;6.80;99.90;;;;;;5055816;28;20029;-66
2021/12/13 01:33:51;;;;;;;5.88;3.95;;;6.70;99.90;;;;;;5037695;28;20025;-66
2021/12/13 01:36:23;;;;;;;6.68;4.25;;;6.70;99.90;;;;;;5055414;28;20029;-66
2021/12/13 01:38:59;;;;;;;6.57;4.00;;;6.70;99.90;;;;;;5037757;28;20569;-66
2021/12/13 01:41:43;;;;;;;6.28;4.05;;;6.70;99.90;;;;;;5055187;28;20103;-67
2021/12/13 01:44:19;;;;;;;7.63;4.28;;;6.70;99.90;;;;;;5037587;28;20017;-66
2021/12/13 01:46:52;;;;;;;8.57;4.07;;;6.60;99.90;;;;;;5037726;28;20025;-66
2021/12/13 01:49:19;;;;;;;9.40;4.28;;;6.60;99.90;;;;;;5055748;28;20029;-67
2021/12/13 01:51:47;;;;;;;7.88;4.05;;;6.70;99.90;;;;;;5055401;28;20024;-67
2021/12/13 01:54:21;;;;;;;7.00;4.32;;;6.70;99.90;;;;;;5055081;28;20420;-67
2021/12/13 01:57:09;;;;;;;7.03;4.35;;;6.70;99.90;;;;;;5055307;28;20032;-66
2021/12/13 01:59:55;;;;;;;6.55;3.78;;;6.70;99.90;;;;;;5037249;28;20472;-66
2021/12/13 02:02:37;;;;;;;7.05;3.97;;;6.70;99.90;;;;;;5055352;28;20095;-67
2021/12/13 02:05:14;;;;;;;9.88;4.10;;;6.60;99.90;;;;;;5055046;28;20029;-66
2021/12/13 02:07:48;;;;;;;8.38;4.18;;;6.60;99.90;;;;;;5055073;28;20041;-66
2021/12/13 02:10:30;;;;;;;10.20;4.07;;;6.60;99.90;;;;;;5037101;28;20036;-66
2021/12/13 02:13:02;;;;;;;7.68;3.72;;;6.60;99.90;;;;;;5054926;28;20021;-67
2021/12/13 02:18:20;;;;;;;6.63;3.38;;;6.50;99.90;;;;;;5055065;28;20028;-67
2021/12/13 02:21:02;;;;;;;5.72;3.35;;;6.50;99.90;;;;;;5054952;28;20024;-66
2021/12/13 02:23:28;;;;;;;8.30;3.45;;;6.50;99.90;;;;;;5036724;28;20068;-67
2021/12/13 02:25:57;;;;;;;9.57;3.63;;;6.50;99.90;;;;;;5036684;28;20506;-66
2021/12/13 02:28:26;;;;;;;7.57;3.67;;;6.40;99.90;;;;;;5036814;28;20029;-66
2021/12/13 02:31:03;;;;;;;8.77;3.35;;;6.40;99.90;;;;;;5054409;28;20028;-66
2021/12/13 02:33:41;;;;;;;9.23;4.00;;;6.40;99.90;;;;;;5054812;28;20025;-65
2021/12/13 02:36:11;;;;;;;8.45;3.28;;;6.50;99.90;;;;;;5054401;28;20025;-66
2021/12/13 02:38:40;;;;;;;10.88;4.10;;;6.40;99.90;;;;;;5054687;28;20017;-67
2021/12/13 02:41:07;;;;;;;5.20;3.33;;;6.40;99.90;;;;;;5054166;28;20536;-66
2021/12/13 02:43:37;;;;;;;8.30;3.78;;;6.50;99.90;;;;;;5054190;28;20021;-66
2021/12/13 02:46:04;;;;;;;7.88;3.75;;;6.50;99.90;;;;;;5054421;28;20033;-66
2021/12/13 02:48:42;;;;;;;6.93;4.18;;;6.50;99.90;;;;;;5054549;28;20544;-66
2021/12/13 02:51:34;;;;;;;8.13;4.18;;;6.40;99.90;;;;;;5055475;28;20053;-67
2021/12/13 02:54:16;;;;;;;9.65;4.07;;;6.40;99.90;;;;;;5053906;28;20028;-66
2021/12/13 02:56:48;;;;;;;8.52;4.45;;;6.50;99.90;;;;;;5054174;28;20064;-66
2021/12/13 02:59:15;;;;;;;6.97;4.22;;;6.50;99.90;;;;;;5053896;28;20028;-66
2021/12/13 03:01:53;;;;;;;7.45;4.15;;;6.50;99.90;;;;;;5054378;28;20021;-66
2021/12/13 03:04:22;;;;;;;8.75;4.40;;;6.50;99.90;;;;;;5054659;28;20012;-66
2021/12/13 03:07:30;;;;;;;10.55;5.47;;;6.50;99.90;;;;;;5036019;28;20056;-65
2021/12/13 03:09:57;;;;;;;9.02;4.35;;;6.40;99.90;;;;;;4954297;29;20039;-66
2021/12/13 03:12:26;;;;;;;7.97;4.25;;;6.40;99.90;;;;;;4953709;28;20114;-65
2021/12/13 03:14:56;;;;;;;7.80;4.63;;;6.40;99.90;;;;;;5005850;28;20504;-66
2021/12/13 03:17:38;;;;;;;7.72;4.20;;;6.40;99.90;;;;;;5053930;28;20029;-65
2021/12/13 03:20:18;;;;;;;12.07;4.72;;;6.40;99.90;;;;;;5035926;28;20032;-65
2021/12/13 03:23:08;;;;;;;6.93;4.13;;;6.50;99.90;;;;;;5053899;28;20037;-65
2021/12/13 03:25:40;;;;;;;8.45;3.97;;;6.40;99.90;;;;;;5053765;28;20029;-65
2021/12/13 03:28:17;;;;;;;9.43;4.78;;;6.40;99.90;;;;;;5053529;28;20025;-65
2021/12/13 03:31:06;;;;;;;7.65;4.72;;;6.40;99.90;;;;;;5053910;28;20025;-66
2021/12/13 03:33:51;;;;;;;8.52;4.38;;;6.40;99.90;;;;;;5053481;28;20080;-65
2021/12/13 03:36:22;;;;;;;8.20;4.38;;;6.30;99.90;;;;;;5035481;28;20028;-66
2021/12/13 03:38:55;;;;;;;11.20;4.43;;;6.40;99.90;;;;;;5053635;28;20021;-66
2021/12/13 03:41:23;;;;;;;8.05;4.28;;;6.40;99.90;;;;;;5053637;28;20187;-68
2021/12/13 03:44:01;;;;;;;8.68;5.00;;;6.40;99.90;;;;;;5035562;28;20021;-66
2021/12/13 03:46:30;;;;;;;8.23;4.55;;;6.30;99.90;;;;;;5053077;28;20108;-67
2021/12/13 03:48:57;;;;;;;9.25;4.75;;;6.30;99.90;;;;;;5053147;28;20025;-67
2021/12/13 03:51:27;;;;;;;11.52;5.13;;;6.30;99.90;;;;;;5053053;28;20033;-67
2021/12/13 03:53:56;;;;;;;10.55;4.75;;;6.30;99.90;;;;;;5053678;28;20370;-66
2021/12/13 03:56:28;;;;;;;9.00;4.40;;;6.30;99.90;;;;;;5035301;28;20119;-66
2021/12/13 03:58:59;;;;;;;9.38;4.70;;;6.40;99.90;;;;;;5053267;28;20013;-67
2021/12/13 04:01:36;;;;;;;8.57;4.35;;;6.40;99.90;;;;;;5052991;28;20047;-66
2021/12/13 04:04:05;;;;;;;10.32;4.53;;;6.30;99.90;;;;;;5053090;28;20386;-66
2021/12/13 04:06:31;;;;;;;9.15;5.00;;;6.40;99.90;;;;;;5052401;28;20417;-66
2021/12/13 04:08:58;;;;;;;8.87;4.50;;;6.40;99.90;;;;;;5053038;28;20128;-66
2021/12/13 04:11:27;;;;;;;11.82;5.20;;;6.50;99.90;;;;;;5052769;28;20745;-66
2021/12/13 04:14:06;;;;;;;8.60;4.28;;;6.50;99.90;;;;;;5053014;28;20029;-66
2021/12/13 04:16:46;;;;;;;8.13;4.70;;;6.50;99.90;;;;;;5053144;28;20428;-66
2021/12/13 04:19:17;;;;;;;8.60;4.78;;;6.50;99.90;;;;;;5034928;28;20017;-66
2021/12/13 04:21:59;;;;;;;9.27;4.57;;;6.60;99.90;;;;;;5052736;28;20081;-66
2021/12/13 04:24:36;;;;;;;9.48;5.20;;;6.60;99.90;;;;;;5053063;28;20091;-66
2021/12/13 04:27:25;;;;;;;7.72;4.55;;;6.60;99.90;;;;;;5052712;28;20029;-66
2021/12/13 04:29:55;;;;;;;9.75;4.55;;;6.50;99.90;;;;;;5002230;28;20596;-67
2021/12/13 04:32:33;;;;;;;8.60;4.18;;;6.50;99.90;;;;;;5034517;28;20025;-66
2021/12/13 04:35:03;;;;;;;7.18;3.70;;;6.60;99.90;;;;;;5052856;28;20508;-66
2021/12/13 04:37:35;;;;;;;8.73;4.70;;;6.50;99.90;;;;;;5052507;28;20112;-66
2021/12/13 04:40:14;;;;;;;8.00;4.10;;;6.50;99.90;;;;;;5053198;28;20017;-67
2021/12/13 04:42:41;;;;;;;6.82;3.88;;;6.50;99.90;;;;;;5034665;28;20060;-66
2021/12/13 04:45:20;;;;;;;8.30;4.60;;;6.50;99.90;;;;;;5052385;28;20158;-66
2021/12/13 04:48:01;;;;;;;8.38;4.45;;;6.40;99.90;;;;;;5052643;28;20104;-66
2021/12/13 04:50:33;;;;;;;9.90;4.40;;;6.30;99.90;;;;;;5034397;28;20013;-67
2021/12/13 04:53:00;;;;;;;7.15;4.18;;;6.30;99.90;;;;;;5052349;28;20023;-67
2021/12/13 04:55:30;;;;;;;6.93;3.70;;;6.30;99.90;;;;;;5052305;28;20112;-67
2021/12/13 04:57:58;;;;;;;8.20;3.75;;;6.20;99.90;;;;;;5052277;28;20017;-67
2021/12/13 05:00:29;;;;;;;9.35;3.97;;;6.30;99.90;;;;;;5052160;28;20029;-67
2021/12/13 05:02:59;;;;;;;7.53;3.95;;;6.30;99.90;;;;;;5034433;28;20478;-67
2021/12/13 05:05:25;;;;;;;6.88;4.32;;;6.20;99.90;;;;;;5034424;28;20029;-68
2021/12/13 05:07:51;;;;;;;;;;;6.20;99.90;;;;;;5052708;28;20490;-70
2021/12/13 05:10:18;;;;;;;5.50;4.00;;;6.20;99.90;;;;;;5052291;28;19911;-69
2021/12/13 05:13:01;;;;;;;8.43;4.00;;;6.30;99.90;;;;;;5052209;28;20099;-69
2021/12/13 05:15:28;;;;;;;7.50;4.47;;;6.30;99.90;;;;;;5052144;28;20028;-68
2021/12/13 05:17:55;;;;;;;10.15;4.38;;;6.30;99.90;;;;;;5036852;28;20482;-68
2021/12/13 05:20:32;;;;;;;9.30;4.22;;;6.30;99.90;;;;;;5056453;28;20057;-68
2021/12/13 05:22:58;;;;;;;;;;;6.30;99.90;;;;;;5039807;28;20486;-69
2021/12/13 05:25:46;;;;;;;10.35;4.80;;;6.40;99.90;;;;;;5056683;28;19904;-68
2021/12/13 05:28:17;;;;;;;14.85;7.60;;;6.30;99.90;;;;;;5041250;28;20032;-66
2021/12/13 05:30:59;;;;;;;8.05;4.55;;;6.30;99.90;;;;;;5038601;28;20417;-66
2021/12/13 05:33:34;;;;;;;8.07;4.60;;;6.30;99.90;;;;;;5055579;28;20033;-67
2021/12/13 05:36:08;;;;;;;8.50;5.00;;;6.20;99.90;;;;;;5055710;28;20461;-67
2021/12/13 05:38:43;;;;;;;7.10;4.40;;;6.20;99.90;;;;;;5056043;28;20432;-67
2021/12/13 05:41:25;;;;;;;7.55;4.63;;;6.10;99.90;;;;;;5055956;28;20072;-67
2021/12/13 05:44:06;;;;;;;7.43;4.40;;;6.10;99.90;;;;;;5038388;28;20063;-67
2021/12/13 05:46:49;;;;;;;7.25;4.50;;;6.10;99.90;;;;;;5056181;28;20537;-67
2021/12/13 05:49:21;;;;;;;7.57;4.07;;;6.00;99.90;;;;;;5038520;28;20363;-68
2021/12/13 05:51:51;;;;;;;8.93;4.80;;;6.00;99.90;;;;;;5056019;28;20095;-68
2021/12/13 05:54:32;;;;;;;10.98;5.05;;;6.00;99.90;;;;;;5056509;28;20074;-66
2021/12/13 05:57:20;;;;;;;7.60;3.95;;;6.10;99.90;;;;;;5038561;28;20031;-67
2021/12/13 05:59:51;;;;;;;6.65;3.75;;;6.10;99.90;;;;;;5058530;28;20091;-66
2021/12/13 06:02:30;;;;;;;12.02;5.57;;;6.10;99.90;;;;;;5056558;28;20021;-65
2021/12/13 06:05:01;;;;;;;8.13;4.38;;;6.10;99.90;;;;;;5038368;28;20025;-66
2021/12/13 06:07:31;;;;;;;7.82;3.38;;;6.00;99.90;;;;;;5038149;28;20462;-67
2021/12/13 06:10:02;;;;;;;9.65;5.45;;;6.00;99.90;;;;;;5054815;28;20031;-67
2021/12/13 06:12:33;;;;;;;7.03;4.10;;;5.90;99.90;;;;;;5054941;28;20025;-66
2021/12/13 06:15:19;;;;;;;9.27;4.63;;;6.00;99.90;;;;;;5054940;28;20036;-66
2021/12/13 06:17:46;;;;;;;11.45;4.30;;;5.90;99.90;;;;;;5054705;28;20021;-67
2021/12/13 06:20:19;;;;;;;12.52;4.40;;;5.90;99.90;;;;;;5036667;28;20021;-66
2021/12/13 06:22:46;;;;;;;7.95;3.70;;;6.00;99.90;;;;;;5054701;28;20080;-67
2021/12/13 06:25:18;;;;;;;11.40;4.10;;;6.00;99.90;;;;;;5055000;28;20052;-67
2021/12/13 06:27:48;;;;;;;6.75;3.80;;;6.10;99.90;;;;;;5054163;28;20039;-67
2021/12/13 06:30:17;;;;;;;9.10;4.07;;;6.20;99.90;;;;;;5053984;28;20036;-64
2021/12/13 06:32:57;;;;;;;9.80;4.20;;;6.20;99.90;;;;;;5054761;28;20482;-66
2021/12/13 06:35:44;;;;;;;7.03;4.43;;;6.20;99.90;;;;;;5036495;28;20024;-66
2021/12/13 06:38:19;;;;;;;12.85;4.50;;;6.30;99.90;;;;;;5053442;28;20016;-67
2021/12/13 06:40:56;;;;;;;8.32;4.53;;;6.30;99.90;;;;;;5052344;28;20067;-67
2021/12/13 06:43:44;;;;;;;9.27;5.25;;;6.40;99.90;;;;;;5052828;28;20025;-67
2021/12/13 06:46:25;;;;;;;;;;;6.40;99.90;;;;;;5053603;28;20047;-68
2021/12/13 06:49:19;;;;;;;15.60;6.88;;;6.40;99.90;;;;;;5052192;28;20003;-68
2021/12/13 06:51:56;;;;;;;12.82;5.68;;;6.40;99.90;;;;;;5032261;28;20033;-67
2021/12/13 06:54:24;;;;;;;8.27;4.43;;;6.40;99.90;;;;;;5053331;28;20103;-66
2021/12/13 06:57:06;;;;;;;10.88;5.13;;;6.40;99.90;;;;;;5054126;28;20043;-66
2021/12/13 06:59:36;;;;;;;10.85;4.88;;;6.40;99.90;;;;;;5054016;28;20028;-70
2021/12/13 07:02:12;;;;;;;13.55;5.65;;;6.30;99.90;;;;;;5053786;28;20017;-67
2021/12/13 07:04:58;;;;;;;10.23;5.07;;;6.30;99.90;;;;;;5054551;28;20024;-67
2021/12/13 07:07:37;;;;;;;11.32;5.47;;;6.30;99.90;;;;;;5054005;28;20386;-66
2021/12/13 07:10:25;;;;;;;9.90;5.40;;;6.20;99.90;;;;;;5054473;28;20382;-67
2021/12/13 07:12:52;;;;;;;;;;;6.20;99.90;;;;;;5054396;28;20098;-65
2021/12/13 07:15:27;;;;;;;11.32;4.93;;;6.20;99.90;;;;;;5035781;28;19912;-67
2021/12/13 07:18:29;;;;;;;11.98;5.28;;;6.30;99.90;;;;;;5036602;28;20029;-65
2021/12/13 07:21:06;;;;;;;11.65;5.22;;;6.20;99.90;;;;;;5037450;28;20474;-67
2021/12/13 07:24:03;;;;;;;12.02;5.60;;;6.20;99.90;;;;;;5054125;28;20040;-66
2021/12/13 07:26:58;;;;;;;12.65;7.10;;;6.20;99.90;;;;;;5054033;28;20393;-66
2021/12/13 07:29:35;;;;;;;11.50;6.35;;;6.30;99.90;;;;;;5037600;28;20031;-67
2021/12/13 07:32:07;;;;;;;9.73;5.95;;;6.30;99.90;;;;;;5054308;28;20040;-67
2021/12/13 07:34:45;;;;;;;11.48;6.00;;;6.30;99.90;;;;;;5035761;28;20064;-67
2021/12/13 07:37:11;;;;;;;12.93;6.63;;;6.40;99.90;;;;;;5053678;28;20059;-67
2021/12/13 07:39:37;;;;;;;13.00;6.67;;;6.40;99.90;;;;;;5053332;28;20522;-67
2021/12/13 07:42:08;;;;;;;14.70;7.70;;;6.60;99.90;;;;;;5053756;28;20263;-67
2021/12/13 07:44:43;;;;;;;19.60;9.77;;;6.60;99.90;;;;;;5054285;28;20021;-67
2021/12/13 07:47:20;;;;;;;14.10;6.82;;;6.50;99.90;;;;;;5055928;28;20023;-67
2021/12/13 07:49:50;;;;;;;14.35;6.82;;;6.60;99.90;;;;;;5055933;28;20043;-69
2021/12/13 07:52:24;;;;;;;14.40;6.22;;;6.50;99.90;;;;;;5055200;28;20021;-67
2021/12/13 07:54:50;;;;;;;14.45;6.60;;;6.60;99.90;;;;;;5055630;28;20024;-68
2021/12/13 07:57:23;;;;;;;15.30;7.35;;;6.60;99.90;;;;;;5055121;28;20021;-67
2021/12/13 07:59:52;;;;;;;12.40;6.78;;;6.60;99.90;;;;;;5037340;28;20037;-67
2021/12/13 08:02:25;;;;;;;14.00;7.05;;;6.60;99.90;;;;;;5037295;28;20024;-67
2021/12/13 08:05:13;;;;;;;17.15;8.48;;;6.60;99.90;;;;;;5053931;28;20478;-67
2021/12/13 08:07:47;;;;;;;16.27;7.35;;;6.70;99.90;;;;;;5053597;28;20071;-66
2021/12/13 08:10:28;;;;;;;18.90;6.80;;;6.60;99.90;;;;;;5035181;28;20029;-67
2021/12/13 08:13:05;;;;;;;12.15;7.50;;;6.70;99.90;;;;;;5052903;28;20025;-66
2021/12/13 08:15:59;;;;;;;18.17;7.45;;;6.70;99.90;;;;;;5035233;28;20120;-67
2021/12/13 08:18:30;;;;;;;14.30;7.45;;;6.70;99.90;;;;;;5050798;28;20120;-66
2021/12/13 08:21:02;;;;;;;18.40;8.27;;;6.70;99.90;;;;;;5053068;28;20481;-66
2021/12/13 08:23:38;;;;;;;13.50;7.68;;;6.70;99.90;;;;;;5034704;28;20068;-67
2021/12/13 08:26:09;;;;;;;16.30;7.93;;;6.80;99.90;;;;;;5034849;28;20083;-67
2021/12/13 08:28:42;;;;;;;18.35;8.15;;;6.90;99.90;;;;;;5034806;28;20310;-66
2021/12/13 08:31:11;;;;;;;13.30;7.43;;;6.90;99.90;;;;;;5052652;28;20159;-66
2021/12/13 08:33:44;;;;;;;16.15;7.70;;;7.00;99.90;;;;;;5052556;28;20036;-66
2021/12/13 08:36:13;;;;;;;12.82;8.02;;;7.00;99.90;;;;;;5052491;28;20075;-66
2021/12/13 08:38:51;;;;;;;14.88;8.57;;;7.10;99.90;;;;;;5052736;28;20482;-66
2021/12/13 08:41:38;;;;;;;15.60;8.07;;;7.10;99.90;;;;;;5053075;28;20021;-66
2021/12/13 08:44:19;;;;;;;19.02;10.43;;;7.20;99.90;;;;;;5052652;28;20094;-67
2021/12/13 08:46:45;;;;;;;14.68;10.02;;;7.20;99.90;;;;;;5052961;28;20029;-67
2021/12/13 08:49:29;;;;;;;18.47;8.67;;;7.30;99.90;;;;;;5052690;28;20098;-67
2021/12/13 08:52:03;;;;;;;14.48;9.02;;;7.40;99.90;;;;;;5054136;28;20159;-67
2021/12/13 08:54:43;;;;;;;17.15;9.90;;;7.50;99.90;;;;;;5057146;28;20033;-67
2021/12/13 08:57:31;;;;;;;17.52;8.05;;;7.30;99.90;;;;;;5056404;28;20025;-67
2021/12/13 08:59:57;;;;;;;;;;;7.30;99.90;;;;;;5039585;28;20033;-67
2021/12/13 09:02:29;;;;;;;15.25;8.38;;;7.30;99.90;;;;;;5056274;28;20358;-66
2021/12/13 09:05:02;;;;;;;15.25;8.10;;;7.20;99.90;;;;;;5038423;28;20064;-67
2021/12/13 09:07:29;;;;;;;20.20;9.52;;;7.30;99.90;;;;;;5056428;28;20112;-67
2021/12/13 09:09:56;;;;;;;17.15;8.30;;;7.40;99.90;;;;;;5056270;28;20545;-66
2021/12/13 09:12:29;;;;;;;16.27;8.13;;;7.50;99.90;;;;;;5056827;28;20041;-66
2021/12/13 09:14:57;;;;;;;13.73;7.97;;;7.60;99.90;;;;;;5056468;28;20029;-66
2021/12/13 09:17:32;;;;;;;15.75;6.97;;;7.70;99.90;;;;;;5056174;28;20029;-66
2021/12/13 09:20:21;;;;;;;13.52;7.82;;;7.80;99.90;;;;;;5056473;28;20096;-67
2021/12/13 09:23:06;;;;;;;13.25;7.53;;;7.80;99.90;;;;;;5055737;28;20095;-66
2021/12/13 09:25:44;;;;;;;15.32;7.07;;;7.70;99.90;;;;;;5055987;28;20063;-68
2021/12/13 09:28:32;;;;;;;18.45;8.07;;;7.80;99.90;;;;;;5056096;28;20108;-68
2021/12/13 09:30:57;;;;;;;12.00;7.35;;;7.80;99.90;;;;;;5038027;28;20025;-67
2021/12/13 09:33:27;;;;;;;20.80;12.27;;;7.60;99.90;;;;;;5056094;28;20033;-66
2021/12/13 09:35:59;;;;;;;12.23;7.72;;;7.50;99.90;;;;;;5055993;28;20390;-68
2021/12/13 09:38:42;;;;;;;14.13;7.32;;;7.40;99.90;;;;;;5055908;28;20025;-66
2021/12/13 09:41:11;;;;;;;16.10;7.45;;;7.50;99.90;;;;;;5038108;28;20025;-66
2021/12/13 09:43:48;;;;;;;14.60;7.15;;;7.80;99.90;;;;;;5037846;28;20021;-68
2021/12/13 09:46:21;;;;;;;13.35;6.80;;;8.00;99.90;;;;;;5056307;28;20363;-66
2021/12/13 09:48:51;;;;;;;11.80;6.60;;;8.20;99.90;;;;;;5056174;28;20052;-67
2021/12/13 09:51:28;;;;;;;15.88;6.45;;;8.30;99.90;;;;;;5056686;28;20470;-68
2021/12/13 09:53:56;;;;;;;11.90;6.25;;;8.50;99.90;;;;;;5057118;28;20111;-67
2021/12/13 09:56:25;;;;;;;11.88;6.63;;;8.70;99.90;;;;;;5057159;28;20029;-67
2021/12/13 09:58:59;;;;;;;11.05;5.85;;;8.80;99.90;;;;;;5039240;28;20048;-66
2021/12/13 10:01:37;;;;;;;11.57;6.57;;;8.80;99.90;;;;;;5057380;28;20021;-68
2021/12/13 10:04:11;;;;;;;11.10;5.72;;;8.80;99.90;;;;;;5039922;28;20025;-68
2021/12/13 10:06:49;;;;;;;14.98;5.80;;;8.90;99.90;;;;;;5038758;28;20478;-67
2021/12/13 10:09:35;;;;;;;10.20;5.63;;;9.20;99.90;;;;;;5057712;28;20029;-67
2021/12/13 10:12:22;;;;;;;12.35;5.57;;;9.60;99.90;;;;;;5055193;28;20063;-67
2021/12/13 10:14:59;;;;;;;10.63;5.25;;;9.70;99.90;;;;;;5055822;28;20017;-67
2021/12/13 10:17:29;;;;;;;13.55;5.40;;;9.80;99.90;;;;;;5055605;28;20118;-67
2021/12/13 10:19:58;;;;;;;13.05;6.38;;;10.10;99.90;;;;;;5055332;28;20018;-67
2021/12/13 10:22:30;;;;;;;15.20;6.38;;;10.20;99.90;;;;;;5054965;28;20088;-67
2021/12/13 10:25:10;;;;;;;12.38;5.60;;;10.10;99.90;;;;;;5055143;28;20032;-67
2021/12/13 10:27:36;;;;;;;9.27;5.90;;;9.90;99.90;;;;;;5054786;28;20052;-67
2021/12/13 10:30:08;;;;;;;13.63;6.68;;;9.70;99.90;;;;;;5054610;28;20029;-67
2021/12/13 10:32:36;;;;;;;17.30;5.88;;;9.80;99.90;;;;;;5054738;28;20109;-69
2021/12/13 10:35:17;;;;;;;10.20;6.15;;;9.80;99.90;;;;;;5036836;28;20075;-67
2021/12/13 10:37:48;;;;;;;9.52;5.43;;;9.80;99.90;;;;;;5036923;28;20494;-67
2021/12/13 10:40:31;;;;;;;11.20;5.32;;;9.90;99.90;;;;;;5037095;28;20025;-68
2021/12/13 10:43:02;;;;;;;9.98;4.78;;;10.00;99.90;;;;;;5054469;28;20048;-68
2021/12/13 10:45:33;;;;;;;10.63;5.25;;;10.00;99.90;;;;;;5054590;28;20025;-68
2021/12/13 10:48:05;;;;;;;8.13;5.15;;;10.10;99.90;;;;;;5054382;28;20017;-69
2021/12/13 10:50:43;;;;;;;11.98;5.28;;;10.20;99.90;;;;;;5037128;28;20432;-69
2021/12/13 10:53:10;;;;;;;13.98;6.00;;;10.30;99.90;;;;;;5036063;28;20032;-68
2021/12/13 10:55:51;;;;;;;9.95;4.85;;;10.50;99.90;;;;;;5054736;28;20025;-68
2021/12/13 10:58:23;;;;;;;10.38;4.78;;;10.70;99.90;;;;;;5054575;28;20504;-68
2021/12/13 11:00:59;;;;;;;11.05;5.10;;;10.80;99.90;;;;;;5036107;28;20393;-68
2021/12/13 11:03:27;;;;;;;10.02;5.40;;;11.00;99.90;;;;;;5036029;28;20021;-68
2021/12/13 11:05:55;;;;;;;10.35;4.93;;;11.00;99.90;;;;;;5036118;28;20389;-68
2021/12/13 11:08:24;;;;;;;11.20;5.82;;;11.00;99.90;;;;;;5036290;28;20612;-68
2021/12/13 11:11:10;;;;;;;12.20;5.57;;;11.00;99.90;;;;;;5054209;28;20067;-69
2021/12/13 11:13:38;;;;;;;9.05;5.45;;;11.00;99.90;;;;;;5036488;28;20055;-68
2021/12/13 11:16:20;;;;;;;11.18;5.18;;;11.00;99.90;;;;;;5035965;28;20028;-68
2021/12/13 11:18:46;;;;;;;14.85;6.28;;;10.80;99.90;;;;;;5036364;28;20497;-68
2021/12/13 11:21:26;;;;;;;8.25;5.10;;;10.80;99.90;;;;;;5054044;28;20094;-68
2021/12/13 11:23:52;;;;;;;10.43;5.10;;;10.70;99.90;;;;;;5036357;28;20044;-67
2021/12/13 11:26:22;;;;;;;7.95;5.85;;;10.80;99.90;;;;;;5053809;28;20025;-68
2021/12/13 11:28:48;;;;;;;13.20;5.50;;;10.90;99.90;;;;;;5053444;28;20029;-68
2021/12/13 11:31:29;;;;;;;;;;;10.90;99.90;;;;;;5035747;28;20028;-68
2021/12/13 11:34:01;;;;;;;10.98;6.25;;;10.90;99.90;;;;;;5035434;28;19912;-68
2021/12/13 11:36:57;;;;;;;10.23;5.55;;;10.80;99.90;;;;;;5053246;28;20029;-67
2021/12/13 11:39:45;;;;;;;11.88;6.28;;;10.70;99.90;;;;;;5035159;28;20032;-68
2021/12/13 11:43:07;;;;;;;11.50;5.82;;;10.70;99.90;;;;;;5035509;28;20021;-68
2021/12/13 11:45:51;;;;;;;8.93;5.55;;;10.90;99.90;;;;;;4953363;29;20031;-67
2021/12/13 11:48:45;;;;;;;11.20;6.85;;;10.90;99.90;;;;;;4953019;29;20042;-68
2021/12/13 11:51:57;;;;;;;9.25;4.95;;;10.80;99.90;;;;;;5013978;28;20037;-68
2021/12/13 11:55:11;;;;;;;9.73;4.35;;;10.70;99.90;;;;;;5034778;28;20028;-67
2021/12/13 11:58:22;;;;;;;9.95;4.53;;;10.80;99.90;;;;;;5052863;28;20100;-68
2021/12/13 12:01:25;;;;;;;11.80;5.05;;;10.50;99.90;;;;;;5054230;28;20035;-68
2021/12/13 12:04:35;;;;;;;7.32;4.40;;;10.50;99.90;;;;;;5054340;28;20100;-68
2021/12/13 12:07:20;;;;;;;8.10;4.20;;;10.50;99.90;;;;;;5029248;28;20435;-67
2021/12/13 12:10:00;;;;;;;9.15;4.38;;;10.50;99.90;;;;;;5054430;28;20017;-67
2021/12/13 12:12:47;;;;;;;8.70;4.28;;;10.60;99.90;;;;;;5054806;28;20425;-67
2021/12/13 12:15:14;;;;;;;6.57;3.70;;;10.70;99.90;;;;;;5054006;28;20029;-67
2021/12/13 12:17:40;;;;;;;8.02;4.25;;;10.80;99.90;;;;;;5036759;28;20483;-67
2021/12/13 12:20:09;;;;;;;7.28;4.78;;;10.90;99.90;;;;;;5053535;28;20025;-67
2021/12/13 12:22:52;;;;;;;10.43;5.03;;;10.90;99.90;;;;;;5036228;28;20037;-67
2021/12/13 12:25:23;;;;;;;9.65;4.95;;;10.90;99.90;;;;;;5053396;28;20090;-67
2021/12/13 12:27:52;;;;;;;6.00;3.50;;;10.80;99.90;;;;;;5037961;28;20053;-67
2021/12/13 12:30:23;;;;;;;6.55;3.30;;;10.70;99.90;;;;;;5056971;28;20021;-67
2021/12/13 12:32:54;;;;;;;7.55;3.08;;;10.60;99.90;;;;;;5057205;28;20021;-67
2021/12/13 12:35:29;;;;;;;6.45;3.40;;;10.50;99.90;;;;;;5040453;28;20410;-67
2021/12/13 12:38:02;;;;;;;8.77;4.30;;;10.50;99.90;;;;;;5057892;28;20031;-67
2021/12/13 12:40:52;;;;;;;9.52;4.43;;;10.60;99.90;;;;;;5056914;28;20096;-67
2021/12/13 12:43:21;;;;;;;13.27;4.70;;;10.60;99.90;;;;;;5056784;28;20454;-66
2021/12/13 12:45:54;;;;;;;8.60;4.28;;;10.60;99.90;;;;;;5056860;28;20099;-67
2021/12/13 12:48:29;;;;;;;9.15;5.13;;;10.50;99.90;;;;;;5038657;28;20035;-67
2021/12/13 12:50:59;;;;;;;8.88;4.35;;;10.60;99.90;;;;;;5056382;28;20052;-67
2021/12/13 12:53:33;;;;;;;13.85;4.72;;;10.60;99.90;;;;;;5056235;28;20086;-67
2021/12/13 12:56:17;;;;;;;7.40;3.42;;;10.70;99.90;;;;;;5056300;28;20064;-67
2021/12/13 12:58:52;;;;;;;6.40;2.45;;;10.70;99.90;;;;;;5039031;28;20017;-67
2021/12/13 13:01:34;;;;;;;5.95;2.38;;;10.40;99.90;;;;;;5056436;28;20096;-67
2021/12/13 13:04:11;;;;;;;6.32;2.70;;;10.30;99.90;;;;;;5038357;28;20021;-67
2021/12/13 13:06:49;;;;;;;8.98;4.95;;;10.30;99.90;;;;;;5056016;28;20098;-66
2021/12/13 13:09:15;;;;;;;9.45;5.28;;;10.40;99.90;;;;;;5056214;28;20071;-67
2021/12/13 13:11:46;;;;;;;10.00;5.75;;;10.50;99.90;;;;;;5056100;28;20037;-67
2021/12/13 13:14:20;;;;;;;11.77;6.35;;;10.50;99.90;;;;;;5037844;28;20029;-68
2021/12/13 13:16:56;;;;;;;13.18;6.05;;;10.50;99.90;;;;;;5055772;28;20036;-67
2021/12/13 13:19:31;;;;;;;6.97;3.28;;;10.50;99.90;;;;;;5056066;28;20096;-67
2021/12/13 13:22:04;;;;;;;5.00;2.80;;;10.40;99.90;;;;;;5038267;28;20130;-68
2021/12/13 13:24:30;;;;;;;8.80;2.50;;;10.30;99.90;;;;;;5056181;28;20421;-67
2021/12/13 13:26:56;;;;;;;6.45;2.70;;;10.10;99.90;;;;;;5055652;28;20082;-66
2021/12/13 13:29:23;;;;;;;7.10;2.42;;;10.00;99.90;;;;;;5055976;28;20033;-67
2021/12/13 13:31:57;;;;;;;6.20;2.95;;;10.00;99.90;;;;;;5037596;28;20546;-65
2021/12/13 13:34:25;;;;;;;5.28;2.45;;;9.90;99.90;;;;;;5055454;28;20028;-67
2021/12/13 13:36:58;;;;;;;6.50;2.67;;;10.00;99.90;;;;;;5055283;28;20021;-66
2021/12/13 13:39:33;;;;;;;6.80;2.80;;;9.90;99.90;;;;;;5055567;28;20044;-66
2021/12/13 13:42:12;;;;;;;5.97;2.97;;;9.80;99.90;;;;;;5055705;28;20074;-66